sensor_id;sensor_type;location;lat;lon;timestamp;P1;durP1;ratioP1;P2;durP2;ratioP2
64643;SDS011;51056;50.330;7.914;2022-10-29T00:01:36;23.70;;;8.15;;
64643;SDS011;51056;50.330;7.914;2022-10-29T00:04:43;33.60;;;8.32;;
64643;SDS011;51056;50.330;7.914;2022-10-29T00:07:48;28.08;;;6.05;;
64643;SDS011;51056;50.330;7.914;2022-10-29T00:10:52;29.90;;;7.65;;
64643;SDS011;51056;50.330;7.914;2022-10-29T00:13:57;22.45;;;6.95;;
64643;SDS011;51056;50.330;7.914;2022-10-29T00:17:02;20.67;;;6.03;;
64643;SDS011;51056;50.330;7.914;2022-10-29T00:20:06;24.67;;;6.68;;
64643;SDS011;51056;50.330;7.914;2022-10-29T00:23:10;16.30;;;5.72;;
64643;SDS011;51056;50.330;7.914;2022-10-29T00:26:13;18.85;;;6.03;;
64643;SDS011;51056;50.330;7.914;2022-10-29T00:29:17;27.00;;;5.80;;
64643;SDS011;51056;50.330;7.914;2022-10-29T00:32:21;28.42;;;6.68;;
64643;SDS011;51056;50.330;7.914;2022-10-29T00:35:25;38.28;;;6.97;;
64643;SDS011;51056;50.330;7.914;2022-10-29T00:38:31;44.67;;;9.23;;
64643;SDS011;51056;50.330;7.914;2022-10-29T00:41:36;28.02;;;6.85;;
64643;SDS011;51056;50.330;7.914;2022-10-29T00:44:39;27.45;;;7.45;;
64643;SDS011;51056;50.330;7.914;2022-10-29T00:47:45;23.50;;;6.85;;
64643;SDS011;51056;50.330;7.914;2022-10-29T00:50:53;47.28;;;7.07;;
64643;SDS011;51056;50.330;7.914;2022-10-29T00:54:01;28.58;;;8.18;;
64643;SDS011;51056;50.330;7.914;2022-10-29T00:57:10;32.35;;;7.05;;
64643;SDS011;51056;50.330;7.914;2022-10-29T01:00:19;29.65;;;6.40;;
64643;SDS011;51056;50.330;7.914;2022-10-29T01:03:23;29.58;;;7.40;;
64643;SDS011;51056;50.330;7.914;2022-10-29T01:06:27;31.85;;;7.90;;
64643;SDS011;51056;50.330;7.914;2022-10-29T01:09:32;35.75;;;7.68;;
64643;SDS011;51056;50.330;7.914;2022-10-29T01:22:38;37.83;;;9.10;;
64643;SDS011;51056;50.330;7.914;2022-10-29T01:26:07;35.30;;;7.93;;
64643;SDS011;51056;50.330;7.914;2022-10-29T01:37:17;24.38;;;5.85;;
64643;SDS011;51056;50.330;7.914;2022-10-29T01:40:24;28.27;;;7.30;;
64643;SDS011;51056;50.330;7.914;2022-10-29T01:43:32;29.83;;;6.32;;
64643;SDS011;51056;50.330;7.914;2022-10-29T01:46:58;23.58;;;7.55;;
64643;SDS011;51056;50.330;7.914;2022-10-29T01:50:05;31.80;;;6.22;;
64643;SDS011;51056;50.330;7.914;2022-10-29T01:53:11;25.55;;;6.50;;
64643;SDS011;51056;50.330;7.914;2022-10-29T01:56:16;18.52;;;6.15;;
64643;SDS011;51056;50.330;7.914;2022-10-29T01:59:20;18.60;;;6.25;;
64643;SDS011;51056;50.330;7.914;2022-10-29T02:02:26;43.80;;;7.00;;
64643;SDS011;51056;50.330;7.914;2022-10-29T02:09:25;31.45;;;7.68;;
64643;SDS011;51056;50.330;7.914;2022-10-29T02:12:46;35.67;;;7.15;;
64643;SDS011;51056;50.330;7.914;2022-10-29T02:15:52;24.55;;;6.40;;
64643;SDS011;51056;50.330;7.914;2022-10-29T02:18:58;47.10;;;7.15;;
64643;SDS011;51056;50.330;7.914;2022-10-29T02:22:02;22.63;;;6.78;;
64643;SDS011;51056;50.330;7.914;2022-10-29T02:25:06;22.90;;;5.63;;
64643;SDS011;51056;50.330;7.914;2022-10-29T02:28:10;36.28;;;6.75;;
64643;SDS011;51056;50.330;7.914;2022-10-29T02:31:13;41.83;;;7.22;;
64643;SDS011;51056;50.330;7.914;2022-10-29T02:34:17;27.23;;;6.72;;
64643;SDS011;51056;50.330;7.914;2022-10-29T02:37:20;25.27;;;5.95;;
64643;SDS011;51056;50.330;7.914;2022-10-29T02:40:27;23.80;;;5.93;;
64643;SDS011;51056;50.330;7.914;2022-10-29T02:43:30;19.38;;;6.35;;
64643;SDS011;51056;50.330;7.914;2022-10-29T02:46:33;25.27;;;6.45;;
64643;SDS011;51056;50.330;7.914;2022-10-29T02:49:41;31.10;;;5.70;;
64643;SDS011;51056;50.330;7.914;2022-10-29T02:52:45;23.60;;;5.72;;
64643;SDS011;51056;50.330;7.914;2022-10-29T02:55:51;48.15;;;6.40;;
64643;SDS011;51056;50.330;7.914;2022-10-29T02:58:55;18.23;;;5.28;;
64643;SDS011;51056;50.330;7.914;2022-10-29T03:01:58;24.63;;;5.65;;
64643;SDS011;51056;50.330;7.914;2022-10-29T03:05:04;15.55;;;6.03;;
64643;SDS011;51056;50.330;7.914;2022-10-29T03:08:08;15.35;;;5.40;;
64643;SDS011;51056;50.330;7.914;2022-10-29T03:11:12;38.42;;;5.38;;
64643;SDS011;51056;50.330;7.914;2022-10-29T03:14:25;16.40;;;5.05;;
64643;SDS011;51056;50.330;7.914;2022-10-29T03:17:29;13.25;;;4.93;;
64643;SDS011;51056;50.330;7.914;2022-10-29T03:20:32;29.08;;;6.55;;
64643;SDS011;51056;50.330;7.914;2022-10-29T03:23:36;20.02;;;5.45;;
64643;SDS011;51056;50.330;7.914;2022-10-29T03:26:42;21.33;;;5.32;;
64643;SDS011;51056;50.330;7.914;2022-10-29T03:29:45;22.45;;;6.00;;
64643;SDS011;51056;50.330;7.914;2022-10-29T03:32:51;16.55;;;6.05;;
64643;SDS011;51056;50.330;7.914;2022-10-29T03:35:56;19.20;;;5.03;;
64643;SDS011;51056;50.330;7.914;2022-10-29T03:39:00;21.10;;;5.50;;
64643;SDS011;51056;50.330;7.914;2022-10-29T03:45:07;25.35;;;6.95;;
64643;SDS011;51056;50.330;7.914;2022-10-29T03:48:12;23.40;;;6.93;;
64643;SDS011;51056;50.330;7.914;2022-10-29T03:51:16;38.25;;;6.22;;
64643;SDS011;51056;50.330;7.914;2022-10-29T03:54:19;13.75;;;5.20;;
64643;SDS011;51056;50.330;7.914;2022-10-29T04:03:32;53.15;;;6.78;;
64643;SDS011;51056;50.330;7.914;2022-10-29T04:06:37;67.03;;;7.03;;
64643;SDS011;51056;50.330;7.914;2022-10-29T04:09:41;27.25;;;7.55;;
64643;SDS011;51056;50.330;7.914;2022-10-29T04:12:44;49.55;;;6.32;;
64643;SDS011;51056;50.330;7.914;2022-10-29T04:15:51;27.42;;;6.75;;
64643;SDS011;51056;50.330;7.914;2022-10-29T04:18:56;38.47;;;6.07;;
64643;SDS011;51056;50.330;7.914;2022-10-29T04:22:01;22.98;;;5.88;;
64643;SDS011;51056;50.330;7.914;2022-10-29T04:25:08;39.80;;;5.78;;
64643;SDS011;51056;50.330;7.914;2022-10-29T04:28:12;38.90;;;5.65;;
64643;SDS011;51056;50.330;7.914;2022-10-29T04:31:16;32.53;;;5.53;;
64643;SDS011;51056;50.330;7.914;2022-10-29T04:38:59;9.05;;;4.75;;
64643;SDS011;51056;50.330;7.914;2022-10-29T04:42:02;38.13;;;5.53;;
64643;SDS011;51056;50.330;7.914;2022-10-29T04:45:07;21.05;;;5.32;;
64643;SDS011;51056;50.330;7.914;2022-10-29T04:48:10;16.30;;;5.18;;
64643;SDS011;51056;50.330;7.914;2022-10-29T04:51:20;12.98;;;5.70;;
64643;SDS011;51056;50.330;7.914;2022-10-29T04:54:25;14.98;;;5.47;;
64643;SDS011;51056;50.330;7.914;2022-10-29T04:57:28;23.70;;;6.53;;
64643;SDS011;51056;50.330;7.914;2022-10-29T05:00:32;16.08;;;4.55;;
64643;SDS011;51056;50.330;7.914;2022-10-29T05:03:36;13.20;;;4.85;;
64643;SDS011;51056;50.330;7.914;2022-10-29T05:06:40;8.77;;;4.28;;
64643;SDS011;51056;50.330;7.914;2022-10-29T05:17:27;10.85;;;5.00;;
64643;SDS011;51056;50.330;7.914;2022-10-29T05:20:31;12.43;;;6.25;;
64643;SDS011;51056;50.330;7.914;2022-10-29T05:23:35;14.68;;;4.72;;
64643;SDS011;51056;50.330;7.914;2022-10-29T05:26:38;14.77;;;5.38;;
64643;SDS011;51056;50.330;7.914;2022-10-29T05:29:43;13.95;;;4.35;;
64643;SDS011;51056;50.330;7.914;2022-10-29T05:32:47;13.00;;;4.30;;
64643;SDS011;51056;50.330;7.914;2022-10-29T05:38:54;8.98;;;4.20;;
64643;SDS011;51056;50.330;7.914;2022-10-29T05:41:57;12.57;;;4.35;;
64643;SDS011;51056;50.330;7.914;2022-10-29T05:45:03;11.50;;;3.78;;
64643;SDS011;51056;50.330;7.914;2022-10-29T05:48:07;17.75;;;5.18;;
64643;SDS011;51056;50.330;7.914;2022-10-29T05:51:12;13.95;;;4.30;;
64643;SDS011;51056;50.330;7.914;2022-10-29T05:54:15;13.13;;;3.80;;
64643;SDS011;51056;50.330;7.914;2022-10-29T05:57:20;9.43;;;3.75;;
64643;SDS011;51056;50.330;7.914;2022-10-29T06:00:24;12.13;;;4.13;;
64643;SDS011;51056;50.330;7.914;2022-10-29T06:03:30;14.27;;;3.88;;
64643;SDS011;51056;50.330;7.914;2022-10-29T06:10:02;10.02;;;3.40;;
64643;SDS011;51056;50.330;7.914;2022-10-29T06:13:10;14.95;;;3.70;;
64643;SDS011;51056;50.330;7.914;2022-10-29T06:16:14;14.68;;;3.75;;
64643;SDS011;51056;50.330;7.914;2022-10-29T06:19:18;15.15;;;4.07;;
64643;SDS011;51056;50.330;7.914;2022-10-29T06:22:22;12.90;;;4.50;;
64643;SDS011;51056;50.330;7.914;2022-10-29T06:25:59;7.57;;;3.30;;
64643;SDS011;51056;50.330;7.914;2022-10-29T06:29:04;12.23;;;3.65;;
64643;SDS011;51056;50.330;7.914;2022-10-29T06:32:07;14.00;;;3.55;;
64643;SDS011;51056;50.330;7.914;2022-10-29T06:35:10;13.77;;;3.22;;
64643;SDS011;51056;50.330;7.914;2022-10-29T06:38:14;10.80;;;3.60;;
64643;SDS011;51056;50.330;7.914;2022-10-29T06:41:17;20.10;;;3.65;;
64643;SDS011;51056;50.330;7.914;2022-10-29T06:44:27;12.90;;;3.88;;
64643;SDS011;51056;50.330;7.914;2022-10-29T06:47:40;11.70;;;3.33;;
64643;SDS011;51056;50.330;7.914;2022-10-29T06:50:44;25.20;;;4.30;;
64643;SDS011;51056;50.330;7.914;2022-10-29T06:53:48;20.10;;;4.90;;
64643;SDS011;51056;50.330;7.914;2022-10-29T06:56:51;19.35;;;4.53;;
64643;SDS011;51056;50.330;7.914;2022-10-29T06:59:54;19.95;;;5.10;;
64643;SDS011;51056;50.330;7.914;2022-10-29T07:02:58;21.15;;;4.88;;
64643;SDS011;51056;50.330;7.914;2022-10-29T07:06:09;14.02;;;4.30;;
64643;SDS011;51056;50.330;7.914;2022-10-29T07:09:12;13.07;;;4.03;;
64643;SDS011;51056;50.330;7.914;2022-10-29T07:12:16;15.70;;;3.75;;
64643;SDS011;51056;50.330;7.914;2022-10-29T07:15:19;17.90;;;4.63;;
64643;SDS011;51056;50.330;7.914;2022-10-29T07:18:23;13.52;;;4.85;;
64643;SDS011;51056;50.330;7.914;2022-10-29T07:21:27;16.88;;;4.50;;
64643;SDS011;51056;50.330;7.914;2022-10-29T07:24:34;19.67;;;5.05;;
64643;SDS011;51056;50.330;7.914;2022-10-29T07:27:37;31.10;;;5.30;;
64643;SDS011;51056;50.330;7.914;2022-10-29T07:30:41;33.85;;;6.15;;
64643;SDS011;51056;50.330;7.914;2022-10-29T07:33:45;21.35;;;5.97;;
64643;SDS011;51056;50.330;7.914;2022-10-29T07:36:48;26.30;;;5.35;;
64643;SDS011;51056;50.330;7.914;2022-10-29T07:39:51;17.83;;;5.25;;
64643;SDS011;51056;50.330;7.914;2022-10-29T07:42:55;37.03;;;6.70;;
64643;SDS011;51056;50.330;7.914;2022-10-29T07:45:59;31.45;;;6.68;;
64643;SDS011;51056;50.330;7.914;2022-10-29T07:49:03;28.73;;;6.75;;
64643;SDS011;51056;50.330;7.914;2022-10-29T07:52:07;24.70;;;6.20;;
64643;SDS011;51056;50.330;7.914;2022-10-29T07:55:16;33.03;;;7.90;;
64643;SDS011;51056;50.330;7.914;2022-10-29T07:58:19;27.50;;;8.20;;
64643;SDS011;51056;50.330;7.914;2022-10-29T08:01:28;30.58;;;11.27;;
64643;SDS011;51056;50.330;7.914;2022-10-29T08:04:31;30.73;;;9.38;;
64643;SDS011;51056;50.330;7.914;2022-10-29T08:07:37;24.10;;;9.25;;
64643;SDS011;51056;50.330;7.914;2022-10-29T08:10:43;21.83;;;8.00;;
64643;SDS011;51056;50.330;7.914;2022-10-29T08:13:47;20.95;;;7.82;;
64643;SDS011;51056;50.330;7.914;2022-10-29T08:16:53;21.77;;;7.75;;
64643;SDS011;51056;50.330;7.914;2022-10-29T08:19:59;21.60;;;8.98;;
64643;SDS011;51056;50.330;7.914;2022-10-29T08:23:07;20.05;;;9.65;;
64643;SDS011;51056;50.330;7.914;2022-10-29T08:26:32;36.28;;;11.43;;
64643;SDS011;51056;50.330;7.914;2022-10-29T08:29:35;27.98;;;12.82;;
64643;SDS011;51056;50.330;7.914;2022-10-29T08:32:46;24.67;;;9.48;;
64643;SDS011;51056;50.330;7.914;2022-10-29T08:35:49;28.15;;;8.73;;
64643;SDS011;51056;50.330;7.914;2022-10-29T08:38:54;20.70;;;7.32;;
64643;SDS011;51056;50.330;7.914;2022-10-29T08:45:34;22.13;;;6.30;;
64643;SDS011;51056;50.330;7.914;2022-10-29T08:48:47;12.65;;;5.43;;
64643;SDS011;51056;50.330;7.914;2022-10-29T08:52:06;18.75;;;6.32;;
64643;SDS011;51056;50.330;7.914;2022-10-29T08:55:21;12.30;;;5.03;;
64643;SDS011;51056;50.330;7.914;2022-10-29T08:58:42;12.38;;;4.72;;
64643;SDS011;51056;50.330;7.914;2022-10-29T09:01:50;16.63;;;6.55;;
64643;SDS011;51056;50.330;7.914;2022-10-29T09:05:00;18.83;;;5.35;;
64643;SDS011;51056;50.330;7.914;2022-10-29T09:31:58;13.00;;;6.75;;
64643;SDS011;51056;50.330;7.914;2022-10-29T09:35:15;14.50;;;6.60;;
64643;SDS011;51056;50.330;7.914;2022-10-29T09:38:21;15.20;;;7.60;;
64643;SDS011;51056;50.330;7.914;2022-10-29T09:41:31;20.48;;;7.28;;
64643;SDS011;51056;50.330;7.914;2022-10-29T09:44:42;15.18;;;7.80;;
64643;SDS011;51056;50.330;7.914;2022-10-29T09:48:01;22.65;;;7.18;;
64643;SDS011;51056;50.330;7.914;2022-10-29T09:51:25;21.92;;;6.80;;
64643;SDS011;51056;50.330;7.914;2022-10-29T09:54:32;18.52;;;6.28;;
64643;SDS011;51056;50.330;7.914;2022-10-29T09:57:36;15.13;;;6.35;;
64643;SDS011;51056;50.330;7.914;2022-10-29T10:00:42;18.10;;;8.27;;
64643;SDS011;51056;50.330;7.914;2022-10-29T10:03:52;14.85;;;7.85;;
64643;SDS011;51056;50.330;7.914;2022-10-29T10:07:08;16.33;;;8.27;;
64643;SDS011;51056;50.330;7.914;2022-10-29T10:10:20;14.05;;;7.82;;
64643;SDS011;51056;50.330;7.914;2022-10-29T10:13:30;17.40;;;6.95;;
64643;SDS011;51056;50.330;7.914;2022-10-29T10:16:36;32.75;;;8.98;;
64643;SDS011;51056;50.330;7.914;2022-10-29T10:19:45;23.25;;;6.97;;
64643;SDS011;51056;50.330;7.914;2022-10-29T10:22:50;19.55;;;6.25;;
64643;SDS011;51056;50.330;7.914;2022-10-29T10:25:58;13.27;;;6.43;;
64643;SDS011;51056;50.330;7.914;2022-10-29T10:29:23;22.13;;;8.10;;
64643;SDS011;51056;50.330;7.914;2022-10-29T10:32:26;16.88;;;6.60;;
64643;SDS011;51056;50.330;7.914;2022-10-29T10:35:29;17.20;;;6.72;;
64643;SDS011;51056;50.330;7.914;2022-10-29T10:38:46;16.95;;;7.68;;
64643;SDS011;51056;50.330;7.914;2022-10-29T10:41:55;19.55;;;7.40;;
64643;SDS011;51056;50.330;7.914;2022-10-29T10:45:11;23.98;;;7.57;;
64643;SDS011;51056;50.330;7.914;2022-10-29T10:48:18;15.95;;;6.28;;
64643;SDS011;51056;50.330;7.914;2022-10-29T10:54:43;20.75;;;6.97;;
64643;SDS011;51056;50.330;7.914;2022-10-29T10:58:07;21.25;;;6.68;;
64643;SDS011;51056;50.330;7.914;2022-10-29T11:01:25;20.17;;;6.15;;
64643;SDS011;51056;50.330;7.914;2022-10-29T11:04:33;25.00;;;6.82;;
64643;SDS011;51056;50.330;7.914;2022-10-29T11:07:41;23.30;;;7.40;;
64643;SDS011;51056;50.330;7.914;2022-10-29T11:10:54;18.23;;;7.10;;
64643;SDS011;51056;50.330;7.914;2022-10-29T11:14:14;17.75;;;7.10;;
64643;SDS011;51056;50.330;7.914;2022-10-29T11:17:28;18.23;;;6.95;;
64643;SDS011;51056;50.330;7.914;2022-10-29T11:20:34;18.33;;;7.75;;
64643;SDS011;51056;50.330;7.914;2022-10-29T11:24:03;17.77;;;7.15;;
64643;SDS011;51056;50.330;7.914;2022-10-29T11:30:40;19.55;;;6.75;;
64643;SDS011;51056;50.330;7.914;2022-10-29T11:34:07;17.25;;;6.50;;
64643;SDS011;51056;50.330;7.914;2022-10-29T11:37:42;18.30;;;6.28;;
64643;SDS011;51056;50.330;7.914;2022-10-29T11:40:49;26.10;;;6.85;;
64643;SDS011;51056;50.330;7.914;2022-10-29T11:43:57;20.83;;;6.82;;
64643;SDS011;51056;50.330;7.914;2022-10-29T11:47:15;18.05;;;6.60;;
64643;SDS011;51056;50.330;7.914;2022-10-29T11:50:43;20.70;;;7.40;;
64643;SDS011;51056;50.330;7.914;2022-10-29T12:17:53;20.13;;;6.38;;
64643;SDS011;51056;50.330;7.914;2022-10-29T12:21:12;17.35;;;7.63;;
64643;SDS011;51056;50.330;7.914;2022-10-29T12:28:03;13.18;;;5.47;;
64643;SDS011;51056;50.330;7.914;2022-10-29T12:31:23;19.02;;;7.18;;
64643;SDS011;51056;50.330;7.914;2022-10-29T12:34:37;19.58;;;7.80;;
64643;SDS011;51056;50.330;7.914;2022-10-29T12:41:23;20.38;;;8.70;;
64643;SDS011;51056;50.330;7.914;2022-10-29T12:44:40;18.02;;;8.60;;
64643;SDS011;51056;50.330;7.914;2022-10-29T12:47:56;21.48;;;7.90;;
64643;SDS011;51056;50.330;7.914;2022-10-29T12:57:47;19.33;;;8.40;;
64643;SDS011;51056;50.330;7.914;2022-10-29T13:00:50;22.90;;;10.00;;
64643;SDS011;51056;50.330;7.914;2022-10-29T13:13:36;16.25;;;7.55;;
64643;SDS011;51056;50.330;7.914;2022-10-29T13:16:44;25.63;;;8.48;;
64643;SDS011;51056;50.330;7.914;2022-10-29T13:19:56;19.38;;;7.00;;
64643;SDS011;51056;50.330;7.914;2022-10-29T13:23:00;21.77;;;7.45;;
64643;SDS011;51056;50.330;7.914;2022-10-29T13:26:05;18.48;;;7.93;;
64643;SDS011;51056;50.330;7.914;2022-10-29T13:29:09;19.25;;;7.40;;
64643;SDS011;51056;50.330;7.914;2022-10-29T13:32:27;21.70;;;7.78;;
64643;SDS011;51056;50.330;7.914;2022-10-29T13:38:45;15.05;;;6.78;;
64643;SDS011;51056;50.330;7.914;2022-10-29T13:42:06;17.45;;;6.05;;
64643;SDS011;51056;50.330;7.914;2022-10-29T13:45:15;18.27;;;7.20;;
64643;SDS011;51056;50.330;7.914;2022-10-29T13:48:35;20.30;;;7.80;;
64643;SDS011;51056;50.330;7.914;2022-10-29T13:51:47;14.30;;;7.28;;
64643;SDS011;51056;50.330;7.914;2022-10-29T13:55:03;20.50;;;8.55;;
64643;SDS011;51056;50.330;7.914;2022-10-29T14:01:14;30.67;;;12.63;;
64643;SDS011;51056;50.330;7.914;2022-10-29T14:04:23;17.00;;;9.93;;
64643;SDS011;51056;50.330;7.914;2022-10-29T14:07:48;17.92;;;8.27;;
64643;SDS011;51056;50.330;7.914;2022-10-29T14:10:57;23.23;;;9.15;;
64643;SDS011;51056;50.330;7.914;2022-10-29T14:14:05;27.90;;;10.15;;
64643;SDS011;51056;50.330;7.914;2022-10-29T14:17:26;19.20;;;8.52;;
64643;SDS011;51056;50.330;7.914;2022-10-29T14:20:29;25.30;;;9.15;;
64643;SDS011;51056;50.330;7.914;2022-10-29T14:23:33;21.45;;;8.43;;
64643;SDS011;51056;50.330;7.914;2022-10-29T14:26:40;19.48;;;7.03;;
64643;SDS011;51056;50.330;7.914;2022-10-29T14:29:45;25.55;;;8.52;;
64643;SDS011;51056;50.330;7.914;2022-10-29T14:32:48;14.98;;;7.03;;
64643;SDS011;51056;50.330;7.914;2022-10-29T14:35:54;26.40;;;7.05;;
64643;SDS011;51056;50.330;7.914;2022-10-29T14:39:21;25.50;;;8.52;;
64643;SDS011;51056;50.330;7.914;2022-10-29T14:42:30;20.50;;;7.85;;
64643;SDS011;51056;50.330;7.914;2022-10-29T14:45:38;17.77;;;8.77;;
64643;SDS011;51056;50.330;7.914;2022-10-29T14:48:47;20.10;;;8.82;;
64643;SDS011;51056;50.330;7.914;2022-10-29T14:52:32;19.40;;;7.85;;
64643;SDS011;51056;50.330;7.914;2022-10-29T14:55:46;25.58;;;8.35;;
64643;SDS011;51056;50.330;7.914;2022-10-29T14:58:51;21.08;;;8.98;;
64643;SDS011;51056;50.330;7.914;2022-10-29T15:01:55;27.70;;;8.88;;
64643;SDS011;51056;50.330;7.914;2022-10-29T15:05:04;20.48;;;8.45;;
64643;SDS011;51056;50.330;7.914;2022-10-29T15:08:24;25.00;;;7.68;;
64643;SDS011;51056;50.330;7.914;2022-10-29T15:11:38;25.25;;;8.38;;
64643;SDS011;51056;50.330;7.914;2022-10-29T15:14:45;14.73;;;6.85;;
64643;SDS011;51056;50.330;7.914;2022-10-29T15:21:06;21.95;;;7.22;;
64643;SDS011;51056;50.330;7.914;2022-10-29T15:24:11;31.35;;;7.28;;
64643;SDS011;51056;50.330;7.914;2022-10-29T15:27:21;17.65;;;5.72;;
64643;SDS011;51056;50.330;7.914;2022-10-29T15:30:33;28.92;;;7.40;;
64643;SDS011;51056;50.330;7.914;2022-10-29T15:33:38;15.40;;;6.05;;
64643;SDS011;51056;50.330;7.914;2022-10-29T15:36:50;21.95;;;7.60;;
64643;SDS011;51056;50.330;7.914;2022-10-29T15:43:25;16.08;;;6.75;;
64643;SDS011;51056;50.330;7.914;2022-10-29T15:46:42;21.48;;;6.63;;
64643;SDS011;51056;50.330;7.914;2022-10-29T15:49:50;15.35;;;5.95;;
64643;SDS011;51056;50.330;7.914;2022-10-29T15:52:54;15.85;;;6.32;;
64643;SDS011;51056;50.330;7.914;2022-10-29T15:56:02;20.92;;;7.60;;
64643;SDS011;51056;50.330;7.914;2022-10-29T15:59:11;25.88;;;7.13;;
64643;SDS011;51056;50.330;7.914;2022-10-29T16:02:51;21.95;;;6.45;;
64643;SDS011;51056;50.330;7.914;2022-10-29T16:06:02;18.08;;;5.80;;
64643;SDS011;51056;50.330;7.914;2022-10-29T16:09:09;22.65;;;6.88;;
64643;SDS011;51056;50.330;7.914;2022-10-29T16:12:55;23.15;;;6.53;;
64643;SDS011;51056;50.330;7.914;2022-10-29T16:16:00;17.98;;;7.10;;
64643;SDS011;51056;50.330;7.914;2022-10-29T16:20:02;20.48;;;6.38;;
64643;SDS011;51056;50.330;7.914;2022-10-29T16:23:09;20.92;;;6.78;;
64643;SDS011;51056;50.330;7.914;2022-10-29T16:26:45;21.65;;;7.65;;
64643;SDS011;51056;50.330;7.914;2022-10-29T16:30:16;18.48;;;6.40;;
64643;SDS011;51056;50.330;7.914;2022-10-29T20:07:27;14.57;;;4.95;;
64643;SDS011;51056;50.330;7.914;2022-10-29T20:10:37;17.20;;;5.80;;
64643;SDS011;51056;50.330;7.914;2022-10-29T20:13:44;16.30;;;6.97;;
64643;SDS011;51056;50.330;7.914;2022-10-29T20:16:50;15.38;;;6.15;;
64643;SDS011;51056;50.330;7.914;2022-10-29T20:19:55;16.13;;;6.75;;
64643;SDS011;51056;50.330;7.914;2022-10-29T20:23:18;12.23;;;6.63;;
64643;SDS011;51056;50.330;7.914;2022-10-29T20:26:23;11.82;;;5.88;;
64643;SDS011;51056;50.330;7.914;2022-10-29T20:29:29;19.13;;;4.70;;
64643;SDS011;51056;50.330;7.914;2022-10-29T20:32:33;15.85;;;5.13;;
64643;SDS011;51056;50.330;7.914;2022-10-29T20:35:39;12.10;;;4.70;;
64643;SDS011;51056;50.330;7.914;2022-10-29T20:38:47;13.05;;;4.05;;
64643;SDS011;51056;50.330;7.914;2022-10-29T20:41:53;15.70;;;4.40;;
64643;SDS011;51056;50.330;7.914;2022-10-29T20:44:57;13.75;;;3.85;;
64643;SDS011;51056;50.330;7.914;2022-10-29T20:48:04;12.20;;;6.65;;
64643;SDS011;51056;50.330;7.914;2022-10-29T20:51:08;13.77;;;4.43;;
64643;SDS011;51056;50.330;7.914;2022-10-29T20:54:14;11.23;;;4.65;;
64643;SDS011;51056;50.330;7.914;2022-10-29T20:57:17;16.88;;;5.88;;
64643;SDS011;51056;50.330;7.914;2022-10-29T21:00:21;14.75;;;6.28;;
64643;SDS011;51056;50.330;7.914;2022-10-29T21:03:24;21.98;;;7.28;;
64643;SDS011;51056;50.330;7.914;2022-10-29T21:06:28;12.82;;;4.72;;
64643;SDS011;51056;50.330;7.914;2022-10-29T21:09:32;16.05;;;4.90;;
64643;SDS011;51056;50.330;7.914;2022-10-29T21:15:38;12.57;;;5.00;;
64643;SDS011;51056;50.330;7.914;2022-10-29T21:18:42;14.80;;;4.28;;
64643;SDS011;51056;50.330;7.914;2022-10-29T21:21:50;27.23;;;5.75;;
64643;SDS011;51056;50.330;7.914;2022-10-29T21:24:53;17.08;;;5.22;;
64643;SDS011;51056;50.330;7.914;2022-10-29T21:27:57;17.13;;;5.03;;
64643;SDS011;51056;50.330;7.914;2022-10-29T21:31:01;9.95;;;4.18;;
64643;SDS011;51056;50.330;7.914;2022-10-29T21:34:05;15.40;;;6.68;;
64643;SDS011;51056;50.330;7.914;2022-10-29T21:37:08;12.95;;;6.45;;
64643;SDS011;51056;50.330;7.914;2022-10-29T21:40:12;13.50;;;5.78;;
64643;SDS011;51056;50.330;7.914;2022-10-29T21:43:16;14.45;;;5.20;;
64643;SDS011;51056;50.330;7.914;2022-10-29T21:46:20;16.02;;;5.68;;
64643;SDS011;51056;50.330;7.914;2022-10-29T21:49:23;15.52;;;6.32;;
64643;SDS011;51056;50.330;7.914;2022-10-29T21:52:26;19.38;;;5.65;;
64643;SDS011;51056;50.330;7.914;2022-10-29T21:55:30;18.10;;;5.38;;
64643;SDS011;51056;50.330;7.914;2022-10-29T21:58:35;15.80;;;5.57;;
64643;SDS011;51056;50.330;7.914;2022-10-29T22:01:38;13.75;;;5.38;;
64643;SDS011;51056;50.330;7.914;2022-10-29T22:04:42;18.95;;;5.93;;
64643;SDS011;51056;50.330;7.914;2022-10-29T22:07:46;28.33;;;6.05;;
64643;SDS011;51056;50.330;7.914;2022-10-29T22:10:49;20.55;;;7.13;;
64643;SDS011;51056;50.330;7.914;2022-10-29T22:13:53;17.60;;;7.82;;
64643;SDS011;51056;50.330;7.914;2022-10-29T22:16:57;20.25;;;6.38;;
64643;SDS011;51056;50.330;7.914;2022-10-29T22:20:00;27.08;;;6.35;;
64643;SDS011;51056;50.330;7.914;2022-10-29T22:23:04;20.38;;;6.18;;
64643;SDS011;51056;50.330;7.914;2022-10-29T22:26:08;12.50;;;5.90;;
64643;SDS011;51056;50.330;7.914;2022-10-29T22:29:11;23.90;;;6.40;;
64643;SDS011;51056;50.330;7.914;2022-10-29T22:32:15;25.98;;;6.15;;
64643;SDS011;51056;50.330;7.914;2022-10-29T22:38:21;19.55;;;7.05;;
64643;SDS011;51056;50.330;7.914;2022-10-29T22:41:26;18.10;;;6.00;;
64643;SDS011;51056;50.330;7.914;2022-10-29T22:44:31;11.57;;;5.35;;
64643;SDS011;51056;50.330;7.914;2022-10-29T22:47:34;14.77;;;5.88;;
64643;SDS011;51056;50.330;7.914;2022-10-29T22:50:38;17.25;;;5.85;;
64643;SDS011;51056;50.330;7.914;2022-10-29T22:53:43;13.55;;;5.40;;
64643;SDS011;51056;50.330;7.914;2022-10-29T22:56:48;15.50;;;5.68;;
64643;SDS011;51056;50.330;7.914;2022-10-29T22:59:52;18.08;;;5.80;;
64643;SDS011;51056;50.330;7.914;2022-10-29T23:02:56;16.70;;;6.20;;
64643;SDS011;51056;50.330;7.914;2022-10-29T23:06:01;20.40;;;6.40;;
64643;SDS011;51056;50.330;7.914;2022-10-29T23:09:06;14.40;;;5.07;;
64643;SDS011;51056;50.330;7.914;2022-10-29T23:12:10;16.65;;;6.90;;
64643;SDS011;51056;50.330;7.914;2022-10-29T23:15:14;24.65;;;6.55;;
64643;SDS011;51056;50.330;7.914;2022-10-29T23:18:18;21.40;;;6.35;;
64643;SDS011;51056;50.330;7.914;2022-10-29T23:21:22;20.33;;;5.70;;
64643;SDS011;51056;50.330;7.914;2022-10-29T23:24:26;29.20;;;6.43;;
64643;SDS011;51056;50.330;7.914;2022-10-29T23:27:29;19.88;;;6.10;;
64643;SDS011;51056;50.330;7.914;2022-10-29T23:30:33;21.33;;;7.15;;
64643;SDS011;51056;50.330;7.914;2022-10-29T23:33:37;21.33;;;7.05;;
64643;SDS011;51056;50.330;7.914;2022-10-29T23:36:43;15.82;;;5.60;;
64643;SDS011;51056;50.330;7.914;2022-10-29T23:39:47;16.80;;;6.15;;
64643;SDS011;51056;50.330;7.914;2022-10-29T23:42:52;16.88;;;7.07;;
64643;SDS011;51056;50.330;7.914;2022-10-29T23:45:55;15.55;;;6.15;;
64643;SDS011;51056;50.330;7.914;2022-10-29T23:49:00;14.50;;;6.28;;
64643;SDS011;51056;50.330;7.914;2022-10-29T23:52:03;13.40;;;6.15;;
64643;SDS011;51056;50.330;7.914;2022-10-29T23:55:07;21.60;;;6.93;;
64643;SDS011;51056;50.330;7.914;2022-10-29T23:58:14;18.77;;;5.20;;
